sensor_id;sensor_type;location;lat;lon;timestamp;P1;durP1;ratioP1;P2;durP2;ratioP2
2362;SDS011;64265;51.664;7.626;2023-02-27T00:00:53;4.10;;;1.73;;
2362;SDS011;64265;51.664;7.626;2023-02-27T00:03:20;4.00;;;2.22;;
2362;SDS011;64265;51.664;7.626;2023-02-27T00:05:47;6.07;;;2.75;;
2362;SDS011;64265;51.664;7.626;2023-02-27T00:08:13;3.83;;;2.15;;
2362;SDS011;64265;51.664;7.626;2023-02-27T00:10:40;4.60;;;2.58;;
2362;SDS011;64265;51.664;7.626;2023-02-27T00:13:08;4.13;;;2.13;;
2362;SDS011;64265;51.664;7.626;2023-02-27T00:15:35;4.53;;;2.67;;
2362;SDS011;64265;51.664;7.626;2023-02-27T00:18:02;2.50;;;2.03;;
2362;SDS011;64265;51.664;7.626;2023-02-27T00:20:29;4.95;;;1.95;;
2362;SDS011;64265;51.664;7.626;2023-02-27T00:23:01;5.90;;;2.63;;
2362;SDS011;64265;51.664;7.626;2023-02-27T00:25:29;3.92;;;1.90;;
2362;SDS011;64265;51.664;7.626;2023-02-27T00:27:55;3.97;;;2.35;;
2362;SDS011;64265;51.664;7.626;2023-02-27T00:30:23;4.75;;;2.17;;
2362;SDS011;64265;51.664;7.626;2023-02-27T00:32:50;2.92;;;1.65;;
2362;SDS011;64265;51.664;7.626;2023-02-27T00:35:17;4.03;;;2.10;;
2362;SDS011;64265;51.664;7.626;2023-02-27T00:37:44;3.85;;;2.70;;
2362;SDS011;64265;51.664;7.626;2023-02-27T00:40:11;6.45;;;2.42;;
2362;SDS011;64265;51.664;7.626;2023-02-27T00:42:39;3.00;;;2.13;;
2362;SDS011;64265;51.664;7.626;2023-02-27T00:45:06;3.50;;;2.42;;
2362;SDS011;64265;51.664;7.626;2023-02-27T00:47:35;3.60;;;2.33;;
2362;SDS011;64265;51.664;7.626;2023-02-27T00:50:02;2.85;;;1.90;;
2362;SDS011;64265;51.664;7.626;2023-02-27T00:52:29;4.05;;;3.38;;
2362;SDS011;64265;51.664;7.626;2023-02-27T00:54:57;3.85;;;1.70;;
2362;SDS011;64265;51.664;7.626;2023-02-27T00:57:24;3.50;;;1.85;;
2362;SDS011;64265;51.664;7.626;2023-02-27T00:59:51;3.25;;;2.00;;
2362;SDS011;64265;51.664;7.626;2023-02-27T01:02:18;3.58;;;1.90;;
2362;SDS011;64265;51.664;7.626;2023-02-27T01:04:46;4.18;;;2.38;;
2362;SDS011;64265;51.664;7.626;2023-02-27T01:07:13;3.03;;;1.83;;
2362;SDS011;64265;51.664;7.626;2023-02-27T01:09:39;3.38;;;2.13;;
2362;SDS011;64265;51.664;7.626;2023-02-27T01:12:06;5.78;;;2.30;;
2362;SDS011;64265;51.664;7.626;2023-02-27T01:14:33;3.35;;;2.22;;
2362;SDS011;64265;51.664;7.626;2023-02-27T01:17:00;1.80;;;1.33;;
2362;SDS011;64265;51.664;7.626;2023-02-27T01:19:27;2.15;;;1.67;;
2362;SDS011;64265;51.664;7.626;2023-02-27T01:21:55;3.78;;;1.90;;
2362;SDS011;64265;51.664;7.626;2023-02-27T01:24:22;2.60;;;1.40;;
2362;SDS011;64265;51.664;7.626;2023-02-27T01:26:49;2.80;;;1.50;;
2362;SDS011;64265;51.664;7.626;2023-02-27T01:29:16;5.90;;;2.00;;
2362;SDS011;64265;51.664;7.626;2023-02-27T01:31:43;2.80;;;1.70;;
2362;SDS011;64265;51.664;7.626;2023-02-27T01:34:09;5.10;;;2.40;;
2362;SDS011;64265;51.664;7.626;2023-02-27T01:36:36;2.28;;;1.73;;
2362;SDS011;64265;51.664;7.626;2023-02-27T01:39:04;2.53;;;1.70;;
2362;SDS011;64265;51.664;7.626;2023-02-27T01:41:31;4.25;;;1.52;;
2362;SDS011;64265;51.664;7.626;2023-02-27T01:43:59;2.60;;;1.98;;
2362;SDS011;64265;51.664;7.626;2023-02-27T01:46:28;3.55;;;2.00;;
2362;SDS011;64265;51.664;7.626;2023-02-27T01:48:58;2.30;;;1.60;;
2362;SDS011;64265;51.664;7.626;2023-02-27T01:51:30;4.35;;;1.90;;
2362;SDS011;64265;51.664;7.626;2023-02-27T01:54:00;2.00;;;1.30;;
2362;SDS011;64265;51.664;7.626;2023-02-27T01:56:30;2.85;;;1.65;;
2362;SDS011;64265;51.664;7.626;2023-02-27T01:58:59;2.60;;;1.60;;
2362;SDS011;64265;51.664;7.626;2023-02-27T02:01:28;2.47;;;1.50;;
2362;SDS011;64265;51.664;7.626;2023-02-27T02:03:58;3.03;;;1.90;;
2362;SDS011;64265;51.664;7.626;2023-02-27T02:06:27;2.50;;;1.95;;
2362;SDS011;64265;51.664;7.626;2023-02-27T02:08:55;2.50;;;1.85;;
2362;SDS011;64265;51.664;7.626;2023-02-27T02:11:24;4.65;;;2.45;;
2362;SDS011;64265;51.664;7.626;2023-02-27T02:13:54;2.72;;;2.00;;
2362;SDS011;64265;51.664;7.626;2023-02-27T02:16:33;2.33;;;1.30;;
2362;SDS011;64265;51.664;7.626;2023-02-27T02:19:15;3.00;;;1.60;;
2362;SDS011;64265;51.664;7.626;2023-02-27T02:22:10;2.85;;;1.60;;
2362;SDS011;64265;51.664;7.626;2023-02-27T02:28:07;2.47;;;1.30;;
2362;SDS011;64265;51.664;7.626;2023-02-27T02:34:11;3.10;;;1.90;;
2362;SDS011;64265;51.664;7.626;2023-02-27T02:37:14;2.63;;;1.30;;
2362;SDS011;64265;51.664;7.626;2023-02-27T02:40:04;2.92;;;1.90;;
2362;SDS011;64265;51.664;7.626;2023-02-27T02:42:39;2.30;;;1.67;;
2362;SDS011;64265;51.664;7.626;2023-02-27T02:45:14;3.05;;;2.10;;
2362;SDS011;64265;51.664;7.626;2023-02-27T02:47:52;2.40;;;1.42;;
2362;SDS011;64265;51.664;7.626;2023-02-27T02:50:26;2.35;;;1.60;;
2362;SDS011;64265;51.664;7.626;2023-02-27T02:52:57;3.70;;;1.63;;
2362;SDS011;64265;51.664;7.626;2023-02-27T02:55:33;1.45;;;1.30;;
2362;SDS011;64265;51.664;7.626;2023-02-27T02:58:05;2.15;;;1.50;;
2362;SDS011;64265;51.664;7.626;2023-02-27T03:00:35;2.40;;;1.60;;
2362;SDS011;64265;51.664;7.626;2023-02-27T03:03:07;2.75;;;1.38;;
2362;SDS011;64265;51.664;7.626;2023-02-27T03:05:38;1.92;;;1.58;;
2362;SDS011;64265;51.664;7.626;2023-02-27T03:08:12;3.28;;;1.85;;
2362;SDS011;64265;51.664;7.626;2023-02-27T03:10:45;2.65;;;1.65;;
2362;SDS011;64265;51.664;7.626;2023-02-27T03:13:16;2.65;;;1.60;;
2362;SDS011;64265;51.664;7.626;2023-02-27T03:15:49;2.33;;;1.80;;
2362;SDS011;64265;51.664;7.626;2023-02-27T03:18:21;1.80;;;1.65;;
2362;SDS011;64265;51.664;7.626;2023-02-27T03:20:53;2.10;;;1.60;;
2362;SDS011;64265;51.664;7.626;2023-02-27T03:23:24;2.20;;;1.20;;
2362;SDS011;64265;51.664;7.626;2023-02-27T03:25:56;2.00;;;1.55;;
2362;SDS011;64265;51.664;7.626;2023-02-27T03:28:24;1.63;;;1.23;;
2362;SDS011;64265;51.664;7.626;2023-02-27T03:30:54;3.08;;;1.70;;
2362;SDS011;64265;51.664;7.626;2023-02-27T03:33:27;1.63;;;1.52;;
2362;SDS011;64265;51.664;7.626;2023-02-27T03:35:58;1.70;;;1.20;;
2362;SDS011;64265;51.664;7.626;2023-02-27T03:38:34;2.80;;;1.88;;
2362;SDS011;64265;51.664;7.626;2023-02-27T03:41:08;2.90;;;1.83;;
2362;SDS011;64265;51.664;7.626;2023-02-27T03:43:39;1.65;;;1.20;;
2362;SDS011;64265;51.664;7.626;2023-02-27T03:46:12;2.83;;;1.50;;
2362;SDS011;64265;51.664;7.626;2023-02-27T03:48:41;2.17;;;1.35;;
2362;SDS011;64265;51.664;7.626;2023-02-27T03:51:09;2.20;;;1.63;;
2362;SDS011;64265;51.664;7.626;2023-02-27T03:53:37;1.20;;;1.10;;
2362;SDS011;64265;51.664;7.626;2023-02-27T03:56:10;2.42;;;1.50;;
2362;SDS011;64265;51.664;7.626;2023-02-27T03:58:39;2.55;;;1.60;;
2362;SDS011;64265;51.664;7.626;2023-02-27T04:01:06;2.08;;;1.33;;
2362;SDS011;64265;51.664;7.626;2023-02-27T04:03:34;2.67;;;1.33;;
2362;SDS011;64265;51.664;7.626;2023-02-27T04:06:08;3.75;;;1.58;;
2362;SDS011;64265;51.664;7.626;2023-02-27T04:08:50;2.22;;;1.35;;
2362;SDS011;64265;51.664;7.626;2023-02-27T04:11:35;1.58;;;1.38;;
2362;SDS011;64265;51.664;7.626;2023-02-27T04:14:35;2.15;;;1.38;;
2362;SDS011;64265;51.664;7.626;2023-02-27T04:17:15;2.05;;;1.58;;
2362;SDS011;64265;51.664;7.626;2023-02-27T04:20:00;1.98;;;1.15;;
2362;SDS011;64265;51.664;7.626;2023-02-27T04:22:43;1.48;;;1.30;;
2362;SDS011;64265;51.664;7.626;2023-02-27T04:25:19;4.25;;;1.63;;
2362;SDS011;64265;51.664;7.626;2023-02-27T04:27:55;2.30;;;1.38;;
2362;SDS011;64265;51.664;7.626;2023-02-27T04:30:26;1.58;;;1.10;;
2362;SDS011;64265;51.664;7.626;2023-02-27T04:32:56;1.90;;;1.40;;
2362;SDS011;64265;51.664;7.626;2023-02-27T04:35:33;1.95;;;1.23;;
2362;SDS011;64265;51.664;7.626;2023-02-27T04:38:05;1.95;;;1.10;;
2362;SDS011;64265;51.664;7.626;2023-02-27T04:40:40;2.70;;;1.30;;
2362;SDS011;64265;51.664;7.626;2023-02-27T04:43:11;2.42;;;1.38;;
2362;SDS011;64265;51.664;7.626;2023-02-27T04:45:40;1.70;;;1.55;;
2362;SDS011;64265;51.664;7.626;2023-02-27T04:48:11;2.15;;;1.77;;
2362;SDS011;64265;51.664;7.626;2023-02-27T04:50:44;2.42;;;1.52;;
2362;SDS011;64265;51.664;7.626;2023-02-27T04:53:17;1.60;;;1.10;;
2362;SDS011;64265;51.664;7.626;2023-02-27T04:55:47;1.55;;;1.20;;
2362;SDS011;64265;51.664;7.626;2023-02-27T04:58:19;2.15;;;1.33;;
2362;SDS011;64265;51.664;7.626;2023-02-27T05:00:49;2.40;;;1.60;;
2362;SDS011;64265;51.664;7.626;2023-02-27T05:03:22;1.60;;;1.20;;
2362;SDS011;64265;51.664;7.626;2023-02-27T05:05:51;2.22;;;1.58;;
2362;SDS011;64265;51.664;7.626;2023-02-27T05:08:24;1.25;;;0.90;;
2362;SDS011;64265;51.664;7.626;2023-02-27T05:10:56;1.40;;;1.05;;
2362;SDS011;64265;51.664;7.626;2023-02-27T05:13:30;2.13;;;1.42;;
2362;SDS011;64265;51.664;7.626;2023-02-27T05:16:04;1.70;;;1.27;;
2362;SDS011;64265;51.664;7.626;2023-02-27T05:18:35;1.15;;;0.90;;
2362;SDS011;64265;51.664;7.626;2023-02-27T05:21:05;1.88;;;1.38;;
2362;SDS011;64265;51.664;7.626;2023-02-27T05:23:41;1.83;;;1.20;;
2362;SDS011;64265;51.664;7.626;2023-02-27T05:26:15;1.60;;;1.23;;
2362;SDS011;64265;51.664;7.626;2023-02-27T05:28:48;1.90;;;1.00;;
2362;SDS011;64265;51.664;7.626;2023-02-27T05:31:20;1.92;;;1.10;;
2362;SDS011;64265;51.664;7.626;2023-02-27T05:33:53;1.92;;;1.25;;
2362;SDS011;64265;51.664;7.626;2023-02-27T05:36:25;1.92;;;1.20;;
2362;SDS011;64265;51.664;7.626;2023-02-27T05:38:58;1.63;;;1.10;;
2362;SDS011;64265;51.664;7.626;2023-02-27T05:41:28;1.65;;;1.17;;
2362;SDS011;64265;51.664;7.626;2023-02-27T05:44:02;2.20;;;1.10;;
2362;SDS011;64265;51.664;7.626;2023-02-27T05:46:34;2.00;;;1.10;;
2362;SDS011;64265;51.664;7.626;2023-02-27T05:49:04;1.42;;;1.10;;
2362;SDS011;64265;51.664;7.626;2023-02-27T05:51:36;1.20;;;0.90;;
2362;SDS011;64265;51.664;7.626;2023-02-27T05:54:05;1.10;;;0.93;;
2362;SDS011;64265;51.664;7.626;2023-02-27T05:56:35;1.98;;;1.10;;
2362;SDS011;64265;51.664;7.626;2023-02-27T05:59:07;1.58;;;1.20;;
2362;SDS011;64265;51.664;7.626;2023-02-27T06:01:41;2.28;;;1.10;;
2362;SDS011;64265;51.664;7.626;2023-02-27T06:04:08;1.80;;;1.13;;
2362;SDS011;64265;51.664;7.626;2023-02-27T06:06:35;1.70;;;1.33;;
2362;SDS011;64265;51.664;7.626;2023-02-27T06:09:02;2.03;;;1.27;;
2362;SDS011;64265;51.664;7.626;2023-02-27T06:11:29;1.45;;;1.25;;
2362;SDS011;64265;51.664;7.626;2023-02-27T06:13:55;2.10;;;1.40;;
2362;SDS011;64265;51.664;7.626;2023-02-27T06:16:23;1.48;;;1.05;;
2362;SDS011;64265;51.664;7.626;2023-02-27T06:18:50;1.65;;;1.00;;
2362;SDS011;64265;51.664;7.626;2023-02-27T06:21:17;1.52;;;1.17;;
2362;SDS011;64265;51.664;7.626;2023-02-27T06:23:44;1.60;;;1.20;;
2362;SDS011;64265;51.664;7.626;2023-02-27T06:26:10;1.42;;;1.00;;
2362;SDS011;64265;51.664;7.626;2023-02-27T06:28:38;1.23;;;1.00;;
2362;SDS011;64265;51.664;7.626;2023-02-27T06:31:06;1.30;;;1.10;;
2362;SDS011;64265;51.664;7.626;2023-02-27T06:33:34;1.10;;;1.00;;
2362;SDS011;64265;51.664;7.626;2023-02-27T06:36:01;1.30;;;0.93;;
2362;SDS011;64265;51.664;7.626;2023-02-27T06:38:27;1.30;;;1.00;;
2362;SDS011;64265;51.664;7.626;2023-02-27T06:40:55;1.90;;;1.40;;
2362;SDS011;64265;51.664;7.626;2023-02-27T06:43:23;1.95;;;1.10;;
2362;SDS011;64265;51.664;7.626;2023-02-27T06:45:51;1.25;;;1.05;;
2362;SDS011;64265;51.664;7.626;2023-02-27T06:48:18;1.25;;;1.00;;
2362;SDS011;64265;51.664;7.626;2023-02-27T06:50:50;1.42;;;1.20;;
2362;SDS011;64265;51.664;7.626;2023-02-27T06:53:17;1.35;;;1.00;;
2362;SDS011;64265;51.664;7.626;2023-02-27T06:55:44;2.88;;;1.55;;
2362;SDS011;64265;51.664;7.626;2023-02-27T06:58:11;1.48;;;1.10;;
2362;SDS011;64265;51.664;7.626;2023-02-27T07:00:38;1.30;;;1.13;;
2362;SDS011;64265;51.664;7.626;2023-02-27T07:03:04;1.17;;;0.88;;
2362;SDS011;64265;51.664;7.626;2023-02-27T07:05:31;1.73;;;1.27;;
2362;SDS011;64265;51.664;7.626;2023-02-27T07:07:59;1.33;;;1.10;;
2362;SDS011;64265;51.664;7.626;2023-02-27T07:10:27;1.20;;;0.85;;
2362;SDS011;64265;51.664;7.626;2023-02-27T07:12:54;1.70;;;1.15;;
2362;SDS011;64265;51.664;7.626;2023-02-27T07:15:20;2.05;;;1.27;;
2362;SDS011;64265;51.664;7.626;2023-02-27T07:17:48;1.23;;;1.10;;
2362;SDS011;64265;51.664;7.626;2023-02-27T07:20:14;1.02;;;0.80;;
2362;SDS011;64265;51.664;7.626;2023-02-27T07:22:41;1.55;;;1.23;;
2362;SDS011;64265;51.664;7.626;2023-02-27T07:25:09;1.58;;;1.05;;
2362;SDS011;64265;51.664;7.626;2023-02-27T07:27:36;1.42;;;0.90;;
2362;SDS011;64265;51.664;7.626;2023-02-27T07:30:03;1.73;;;1.00;;
2362;SDS011;64265;51.664;7.626;2023-02-27T07:32:31;1.13;;;0.90;;
2362;SDS011;64265;51.664;7.626;2023-02-27T07:34:58;1.10;;;1.00;;
2362;SDS011;64265;51.664;7.626;2023-02-27T07:37:24;1.30;;;1.00;;
2362;SDS011;64265;51.664;7.626;2023-02-27T07:39:51;1.17;;;1.08;;
2362;SDS011;64265;51.664;7.626;2023-02-27T07:42:19;1.60;;;1.02;;
2362;SDS011;64265;51.664;7.626;2023-02-27T07:44:46;3.00;;;1.48;;
2362;SDS011;64265;51.664;7.626;2023-02-27T07:47:12;1.27;;;1.00;;
2362;SDS011;64265;51.664;7.626;2023-02-27T07:49:41;1.20;;;1.10;;
2362;SDS011;64265;51.664;7.626;2023-02-27T07:52:08;1.67;;;1.20;;
2362;SDS011;64265;51.664;7.626;2023-02-27T07:54:35;1.63;;;1.10;;
2362;SDS011;64265;51.664;7.626;2023-02-27T07:57:02;1.63;;;1.20;;
2362;SDS011;64265;51.664;7.626;2023-02-27T07:59:30;1.95;;;1.02;;
2362;SDS011;64265;51.664;7.626;2023-02-27T08:01:57;1.50;;;1.00;;
2362;SDS011;64265;51.664;7.626;2023-02-27T08:04:23;1.73;;;1.40;;
2362;SDS011;64265;51.664;7.626;2023-02-27T08:06:50;1.77;;;0.88;;
2362;SDS011;64265;51.664;7.626;2023-02-27T08:09:17;1.40;;;1.30;;
2362;SDS011;64265;51.664;7.626;2023-02-27T08:11:43;1.50;;;1.05;;
2362;SDS011;64265;51.664;7.626;2023-02-27T08:14:10;1.75;;;0.90;;
2362;SDS011;64265;51.664;7.626;2023-02-27T08:16:38;1.38;;;0.95;;
2362;SDS011;64265;51.664;7.626;2023-02-27T08:19:05;1.48;;;1.10;;
2362;SDS011;64265;51.664;7.626;2023-02-27T08:21:32;1.20;;;1.00;;
2362;SDS011;64265;51.664;7.626;2023-02-27T08:23:58;1.20;;;1.08;;
2362;SDS011;64265;51.664;7.626;2023-02-27T08:26:25;1.63;;;1.25;;
2362;SDS011;64265;51.664;7.626;2023-02-27T08:28:52;3.05;;;0.90;;
2362;SDS011;64265;51.664;7.626;2023-02-27T08:31:19;1.08;;;0.80;;
2362;SDS011;64265;51.664;7.626;2023-02-27T08:33:47;1.27;;;0.80;;
2362;SDS011;64265;51.664;7.626;2023-02-27T08:36:14;2.03;;;1.10;;
2362;SDS011;64265;51.664;7.626;2023-02-27T08:38:41;1.45;;;1.00;;
2362;SDS011;64265;51.664;7.626;2023-02-27T08:41:08;1.65;;;1.00;;
2362;SDS011;64265;51.664;7.626;2023-02-27T08:43:34;1.10;;;0.90;;
2362;SDS011;64265;51.664;7.626;2023-02-27T08:46:01;1.70;;;1.17;;
2362;SDS011;64265;51.664;7.626;2023-02-27T08:48:28;7.63;;;1.25;;
2362;SDS011;64265;51.664;7.626;2023-02-27T08:50:56;2.85;;;1.55;;
2362;SDS011;64265;51.664;7.626;2023-02-27T08:53:23;1.30;;;1.10;;
2362;SDS011;64265;51.664;7.626;2023-02-27T08:55:50;4.20;;;1.02;;
2362;SDS011;64265;51.664;7.626;2023-02-27T08:58:17;1.60;;;1.02;;
2362;SDS011;64265;51.664;7.626;2023-02-27T09:00:44;1.48;;;1.10;;
2362;SDS011;64265;51.664;7.626;2023-02-27T09:03:11;1.05;;;0.95;;
2362;SDS011;64265;51.664;7.626;2023-02-27T09:05:38;1.80;;;1.10;;
2362;SDS011;64265;51.664;7.626;2023-02-27T09:08:07;2.45;;;0.90;;
2362;SDS011;64265;51.664;7.626;2023-02-27T09:10:34;2.22;;;1.05;;
2362;SDS011;64265;51.664;7.626;2023-02-27T09:13:00;2.17;;;0.80;;
2362;SDS011;64265;51.664;7.626;2023-02-27T09:15:27;1.10;;;1.00;;
2362;SDS011;64265;51.664;7.626;2023-02-27T09:17:55;3.80;;;1.30;;
2362;SDS011;64265;51.664;7.626;2023-02-27T09:20:26;1.40;;;1.00;;
2362;SDS011;64265;51.664;7.626;2023-02-27T09:22:54;1.10;;;0.90;;
2362;SDS011;64265;51.664;7.626;2023-02-27T09:25:22;2.72;;;1.48;;
2362;SDS011;64265;51.664;7.626;2023-02-27T09:27:48;1.42;;;1.15;;
2362;SDS011;64265;51.664;7.626;2023-02-27T09:30:15;1.70;;;1.10;;
2362;SDS011;64265;51.664;7.626;2023-02-27T09:32:42;1.17;;;0.90;;
2362;SDS011;64265;51.664;7.626;2023-02-27T09:35:09;1.90;;;0.90;;
2362;SDS011;64265;51.664;7.626;2023-02-27T09:37:37;1.13;;;0.93;;
2362;SDS011;64265;51.664;7.626;2023-02-27T09:40:05;2.42;;;1.20;;
2362;SDS011;64265;51.664;7.626;2023-02-27T09:42:35;1.10;;;0.85;;
2362;SDS011;64265;51.664;7.626;2023-02-27T09:45:06;2.58;;;1.10;;
2362;SDS011;64265;51.664;7.626;2023-02-27T09:47:38;3.08;;;1.23;;
2362;SDS011;64265;51.664;7.626;2023-02-27T09:50:23;1.92;;;1.10;;
2362;SDS011;64265;51.664;7.626;2023-02-27T09:52:57;2.30;;;1.10;;
2362;SDS011;64265;51.664;7.626;2023-02-27T09:55:24;1.20;;;0.98;;
2362;SDS011;64265;51.664;7.626;2023-02-27T09:57:58;1.30;;;0.80;;
2362;SDS011;64265;51.664;7.626;2023-02-27T10:00:38;1.48;;;1.00;;
2362;SDS011;64265;51.664;7.626;2023-02-27T10:03:17;1.42;;;1.15;;
2362;SDS011;64265;51.664;7.626;2023-02-27T10:05:57;1.10;;;0.88;;
2362;SDS011;64265;51.664;7.626;2023-02-27T10:08:41;1.65;;;0.95;;
2362;SDS011;64265;51.664;7.626;2023-02-27T10:11:15;1.50;;;1.20;;
2362;SDS011;64265;51.664;7.626;2023-02-27T10:13:52;1.27;;;1.00;;
2362;SDS011;64265;51.664;7.626;2023-02-27T10:16:24;1.20;;;1.00;;
2362;SDS011;64265;51.664;7.626;2023-02-27T10:18:52;1.95;;;1.15;;
2362;SDS011;64265;51.664;7.626;2023-02-27T10:21:23;1.50;;;1.40;;
2362;SDS011;64265;51.664;7.626;2023-02-27T10:23:56;1.10;;;0.80;;
2362;SDS011;64265;51.664;7.626;2023-02-27T10:26:27;1.67;;;0.80;;
2362;SDS011;64265;51.664;7.626;2023-02-27T10:28:58;1.08;;;0.90;;
2362;SDS011;64265;51.664;7.626;2023-02-27T10:31:38;1.58;;;1.00;;
2362;SDS011;64265;51.664;7.626;2023-02-27T10:34:07;2.15;;;1.33;;
2362;SDS011;64265;51.664;7.626;2023-02-27T10:36:38;1.15;;;1.00;;
2362;SDS011;64265;51.664;7.626;2023-02-27T10:39:06;1.10;;;1.00;;
2362;SDS011;64265;51.664;7.626;2023-02-27T10:41:37;1.65;;;1.10;;
2362;SDS011;64265;51.664;7.626;2023-02-27T10:44:06;1.33;;;0.90;;
2362;SDS011;64265;51.664;7.626;2023-02-27T10:46:35;1.83;;;1.27;;
2362;SDS011;64265;51.664;7.626;2023-02-27T10:49:05;1.35;;;1.10;;
2362;SDS011;64265;51.664;7.626;2023-02-27T10:51:39;5.20;;;0.82;;
2362;SDS011;64265;51.664;7.626;2023-02-27T10:54:17;1.20;;;1.00;;
2362;SDS011;64265;51.664;7.626;2023-02-27T10:56:48;1.67;;;1.00;;
2362;SDS011;64265;51.664;7.626;2023-02-27T10:59:19;1.23;;;1.00;;
2362;SDS011;64265;51.664;7.626;2023-02-27T11:01:49;1.45;;;1.10;;
2362;SDS011;64265;51.664;7.626;2023-02-27T11:04:24;1.00;;;0.90;;
2362;SDS011;64265;51.664;7.626;2023-02-27T11:06:54;2.63;;;1.00;;
2362;SDS011;64265;51.664;7.626;2023-02-27T11:09:22;1.40;;;0.98;;
2362;SDS011;64265;51.664;7.626;2023-02-27T11:11:50;1.50;;;1.20;;
2362;SDS011;64265;51.664;7.626;2023-02-27T11:14:26;1.40;;;1.00;;
2362;SDS011;64265;51.664;7.626;2023-02-27T11:16:55;1.05;;;0.85;;
2362;SDS011;64265;51.664;7.626;2023-02-27T11:19:24;1.45;;;1.27;;
2362;SDS011;64265;51.664;7.626;2023-02-27T11:21:59;2.13;;;1.00;;
2362;SDS011;64265;51.664;7.626;2023-02-27T11:24:28;5.65;;;1.10;;
2362;SDS011;64265;51.664;7.626;2023-02-27T11:26:55;1.77;;;1.15;;
2362;SDS011;64265;51.664;7.626;2023-02-27T11:29:23;1.40;;;1.10;;
2362;SDS011;64265;51.664;7.626;2023-02-27T11:31:53;1.50;;;1.00;;
2362;SDS011;64265;51.664;7.626;2023-02-27T11:34:29;1.55;;;1.00;;
2362;SDS011;64265;51.664;7.626;2023-02-27T11:36:58;1.77;;;1.17;;
2362;SDS011;64265;51.664;7.626;2023-02-27T11:39:28;1.30;;;1.13;;
2362;SDS011;64265;51.664;7.626;2023-02-27T11:42:07;1.13;;;0.80;;
2362;SDS011;64265;51.664;7.626;2023-02-27T11:44:39;2.17;;;1.02;;
2362;SDS011;64265;51.664;7.626;2023-02-27T11:47:20;1.27;;;1.10;;
2362;SDS011;64265;51.664;7.626;2023-02-27T11:52:39;0.90;;;0.80;;
2362;SDS011;64265;51.664;7.626;2023-02-27T11:55:13;1.10;;;0.80;;
2362;SDS011;64265;51.664;7.626;2023-02-27T11:57:44;1.55;;;1.42;;
2362;SDS011;64265;51.664;7.626;2023-02-27T12:00:15;2.78;;;1.00;;
2362;SDS011;64265;51.664;7.626;2023-02-27T12:02:49;2.33;;;1.07;;
2362;SDS011;64265;51.664;7.626;2023-02-27T12:05:21;1.83;;;1.13;;
2362;SDS011;64265;51.664;7.626;2023-02-27T12:07:53;1.98;;;1.00;;
2362;SDS011;64265;51.664;7.626;2023-02-27T12:10:24;1.95;;;0.88;;
2362;SDS011;64265;51.664;7.626;2023-02-27T12:12:54;1.65;;;1.25;;
2362;SDS011;64265;51.664;7.626;2023-02-27T12:15:26;1.20;;;0.88;;
2362;SDS011;64265;51.664;7.626;2023-02-27T12:18:02;1.10;;;0.80;;
2362;SDS011;64265;51.664;7.626;2023-02-27T12:20:37;1.00;;;0.80;;
2362;SDS011;64265;51.664;7.626;2023-02-27T12:23:12;1.80;;;0.80;;
2362;SDS011;64265;51.664;7.626;2023-02-27T12:25:44;1.00;;;0.70;;
2362;SDS011;64265;51.664;7.626;2023-02-27T12:28:18;1.70;;;1.05;;
2362;SDS011;64265;51.664;7.626;2023-02-27T12:30:54;2.38;;;1.10;;
2362;SDS011;64265;51.664;7.626;2023-02-27T12:33:32;1.80;;;1.20;;
2362;SDS011;64265;51.664;7.626;2023-02-27T12:36:07;6.88;;;1.23;;
2362;SDS011;64265;51.664;7.626;2023-02-27T12:38:36;2.10;;;0.90;;
2362;SDS011;64265;51.664;7.626;2023-02-27T12:41:08;1.88;;;1.55;;
2362;SDS011;64265;51.664;7.626;2023-02-27T12:43:52;2.47;;;1.13;;
2362;SDS011;64265;51.664;7.626;2023-02-27T12:46:32;1.30;;;1.20;;
2362;SDS011;64265;51.664;7.626;2023-02-27T12:49:13;2.38;;;1.30;;
2362;SDS011;64265;51.664;7.626;2023-02-27T12:51:49;1.67;;;0.95;;
2362;SDS011;64265;51.664;7.626;2023-02-27T12:54:29;2.03;;;1.00;;
2362;SDS011;64265;51.664;7.626;2023-02-27T12:57:08;2.20;;;1.10;;
2362;SDS011;64265;51.664;7.626;2023-02-27T12:59:51;1.48;;;0.90;;
2362;SDS011;64265;51.664;7.626;2023-02-27T13:02:29;3.63;;;1.63;;
2362;SDS011;64265;51.664;7.626;2023-02-27T13:05:14;1.35;;;1.00;;
2362;SDS011;64265;51.664;7.626;2023-02-27T13:07:58;1.27;;;1.00;;
2362;SDS011;64265;51.664;7.626;2023-02-27T13:10:35;1.20;;;0.85;;
2362;SDS011;64265;51.664;7.626;2023-02-27T13:13:11;1.40;;;1.10;;
2362;SDS011;64265;51.664;7.626;2023-02-27T13:15:42;1.02;;;0.82;;
2362;SDS011;64265;51.664;7.626;2023-02-27T13:18:18;1.67;;;1.00;;
2362;SDS011;64265;51.664;7.626;2023-02-27T13:21:03;4.13;;;1.27;;
2362;SDS011;64265;51.664;7.626;2023-02-27T13:23:37;2.03;;;1.40;;
2362;SDS011;64265;51.664;7.626;2023-02-27T13:26:13;3.65;;;1.25;;
2362;SDS011;64265;51.664;7.626;2023-02-27T13:28:46;1.50;;;1.10;;
2362;SDS011;64265;51.664;7.626;2023-02-27T13:31:16;2.20;;;1.17;;
2362;SDS011;64265;51.664;7.626;2023-02-27T13:33:51;1.42;;;0.95;;
2362;SDS011;64265;51.664;7.626;2023-02-27T13:36:26;1.75;;;1.10;;
2362;SDS011;64265;51.664;7.626;2023-02-27T13:38:59;2.50;;;1.70;;
2362;SDS011;64265;51.664;7.626;2023-02-27T13:41:35;1.80;;;1.20;;
2362;SDS011;64265;51.664;7.626;2023-02-27T13:53:17;2.28;;;1.38;;
2362;SDS011;64265;51.664;7.626;2023-02-27T13:55:45;1.55;;;1.05;;
2362;SDS011;64265;51.664;7.626;2023-02-27T13:58:14;1.75;;;1.17;;
2362;SDS011;64265;51.664;7.626;2023-02-27T14:00:52;2.40;;;1.10;;
2362;SDS011;64265;51.664;7.626;2023-02-27T14:03:25;2.13;;;1.25;;
2362;SDS011;64265;51.664;7.626;2023-02-27T14:05:55;1.45;;;1.25;;
2362;SDS011;64265;51.664;7.626;2023-02-27T14:08:27;2.08;;;1.15;;
2362;SDS011;64265;51.664;7.626;2023-02-27T14:10:57;2.95;;;1.02;;
2362;SDS011;64265;51.664;7.626;2023-02-27T14:16:52;3.25;;;1.30;;
2362;SDS011;64265;51.664;7.626;2023-02-27T14:19:24;1.63;;;1.02;;
2362;SDS011;64265;51.664;7.626;2023-02-27T14:22:28;1.52;;;1.02;;
2362;SDS011;64265;51.664;7.626;2023-02-27T14:25:20;1.50;;;1.20;;
2362;SDS011;64265;51.664;7.626;2023-02-27T14:27:51;2.75;;;1.05;;
2362;SDS011;64265;51.664;7.626;2023-02-27T14:30:23;1.42;;;1.10;;
2362;SDS011;64265;51.664;7.626;2023-02-27T14:33:04;1.10;;;0.90;;
2362;SDS011;64265;51.664;7.626;2023-02-27T14:35:37;1.55;;;1.27;;
2362;SDS011;64265;51.664;7.626;2023-02-27T14:38:07;4.13;;;1.73;;
2362;SDS011;64265;51.664;7.626;2023-02-27T14:40:38;2.35;;;1.38;;
2362;SDS011;64265;51.664;7.626;2023-02-27T14:43:13;1.50;;;0.98;;
2362;SDS011;64265;51.664;7.626;2023-02-27T14:45:51;1.58;;;1.15;;
2362;SDS011;64265;51.664;7.626;2023-02-27T14:48:20;1.10;;;0.93;;
2362;SDS011;64265;51.664;7.626;2023-02-27T14:50:53;1.33;;;1.10;;
2362;SDS011;64265;51.664;7.626;2023-02-27T14:53:22;1.35;;;1.13;;
2362;SDS011;64265;51.664;7.626;2023-02-27T14:55:55;2.67;;;1.33;;
2362;SDS011;64265;51.664;7.626;2023-02-27T14:58:24;1.42;;;1.10;;
2362;SDS011;64265;51.664;7.626;2023-02-27T15:01:02;1.53;;;0.97;;
2362;SDS011;64265;51.664;7.626;2023-02-27T15:03:34;1.50;;;1.08;;
2362;SDS011;64265;51.664;7.626;2023-02-27T15:06:11;2.25;;;1.25;;
2362;SDS011;64265;51.664;7.626;2023-02-27T15:08:41;13.38;;;1.27;;
2362;SDS011;64265;51.664;7.626;2023-02-27T15:11:14;3.50;;;1.00;;
2362;SDS011;64265;51.664;7.626;2023-02-27T15:13:43;4.25;;;0.90;;
2362;SDS011;64265;51.664;7.626;2023-02-27T15:19:09;2.03;;;1.45;;
2362;SDS011;64265;51.664;7.626;2023-02-27T15:21:39;1.73;;;1.10;;
2362;SDS011;64265;51.664;7.626;2023-02-27T15:24:16;2.35;;;1.17;;
2362;SDS011;64265;51.664;7.626;2023-02-27T15:26:55;6.25;;;1.77;;
2362;SDS011;64265;51.664;7.626;2023-02-27T15:29:24;2.55;;;1.33;;
2362;SDS011;64265;51.664;7.626;2023-02-27T15:31:55;4.85;;;2.20;;
2362;SDS011;64265;51.664;7.626;2023-02-27T15:34:22;5.10;;;1.98;;
2362;SDS011;64265;51.664;7.626;2023-02-27T15:36:50;5.25;;;1.77;;
2362;SDS011;64265;51.664;7.626;2023-02-27T15:39:18;2.30;;;1.70;;
2362;SDS011;64265;51.664;7.626;2023-02-27T15:41:47;4.55;;;1.50;;
2362;SDS011;64265;51.664;7.626;2023-02-27T15:44:18;5.20;;;1.80;;
2362;SDS011;64265;51.664;7.626;2023-02-27T15:46:49;2.95;;;1.58;;
2362;SDS011;64265;51.664;7.626;2023-02-27T15:49:17;4.25;;;1.90;;